Time;durP1;ratioP1;P1;durP2;ratioP2;P2;SDS_P1;SDS_P2;PMS_P1;PMS_P2;Temp;Humidity;BMP_temperature;BMP_pressure;BME280_temperature;BME280_humidity;BME280_pressure;Samples;Min_cycle;Max_cycle;Signal;HPM_P1;HPM_P2
2023/11/03 12:10:02;;;;;;;5.63;1.90;;;6.80;99.90;;;;;;5102662;27;20803;-83
2023/11/03 12:12:30;;;;;;;7.70;1.60;;;6.70;99.90;;;;;;5067221;28;20193;-87
2023/11/03 12:14:58;;;;;;;5.77;1.70;;;6.70;99.90;;;;;;5066728;28;20763;-82
2023/11/03 12:17:25;;;;;;;3.90;1.57;;;6.70;99.90;;;;;;5064995;28;20550;-84
2023/11/03 12:19:53;;;;;;;4.57;1.60;;;6.70;99.90;;;;;;5072832;28;20216;-84
2023/11/03 12:22:20;;;;;;;2.33;1.30;;;6.80;99.90;;;;;;5068656;28;20193;-84
2023/11/03 12:24:48;;;;;;;4.45;1.70;;;6.70;99.90;;;;;;5068248;28;20212;-84
2023/11/03 12:27:16;;;;;;;3.73;1.70;;;6.80;99.90;;;;;;5060723;28;20228;-88
2023/11/03 12:29:47;;;;;;;4.20;1.75;;;6.90;99.90;;;;;;5065524;28;20217;-89
2023/11/03 12:32:15;;;;;;;5.70;1.90;;;6.90;99.90;;;;;;5066390;28;20319;-88
2023/11/03 12:34:43;;;;;;;4.22;1.60;;;7.00;99.90;;;;;;5066639;28;20856;-87
2023/11/03 12:37:12;;;;;;;5.40;1.63;;;7.10;99.90;;;;;;5066018;28;20186;-86
2023/11/03 12:39:50;;;;;;;4.95;1.90;;;7.30;99.90;;;;;;5065583;28;20579;-88
2023/11/03 12:42:22;;;;;;;4.43;2.03;;;7.40;99.90;;;;;;5063188;28;20272;-88
2023/11/03 12:44:51;;;;;;;4.90;1.98;;;7.60;99.90;;;;;;5062200;28;20254;-86
2023/11/03 12:47:43;;;;;;;4.15;1.75;;;7.80;99.90;;;;;;5063081;28;20190;-89
2023/11/03 12:50:16;;;;;;;3.90;1.80;;;7.90;99.90;;;;;;5059012;28;20189;-83
2023/11/03 12:52:44;;;;;;;4.72;1.70;;;8.00;99.90;;;;;;5051204;28;20270;-85
2023/11/03 12:55:11;;;;;;;5.82;1.88;;;8.20;99.90;;;;;;5047732;28;20192;-85
2023/11/03 12:57:41;;;;;;;3.63;1.60;;;8.20;99.90;;;;;;5035964;28;20198;-85
2023/11/03 13:00:10;;;;;;;4.53;1.70;;;8.20;99.90;;;;;;5053065;28;20801;-84
2023/11/03 13:02:39;;;;;;;3.92;1.60;;;8.00;99.90;;;;;;5042036;28;20276;-83
2023/11/03 13:05:07;;;;;;;4.85;1.90;;;8.00;99.90;;;;;;5047537;28;20205;-82
2023/11/03 13:07:34;;;;;;;3.05;1.50;;;7.90;99.90;;;;;;5046019;28;20554;-85
2023/11/03 13:10:01;;;;;;;4.57;1.77;;;8.00;99.90;;;;;;5046143;28;20565;-86
2023/11/03 13:12:28;;;;;;;5.20;1.88;;;7.90;99.90;;;;;;5045586;28;20209;-86
2023/11/03 13:14:56;;;;;;;3.42;1.88;;;7.80;99.90;;;;;;5045003;28;20205;-86
2023/11/03 13:17:23;;;;;;;5.32;2.00;;;7.80;99.90;;;;;;5051597;28;20585;-85
2023/11/03 13:19:52;;;;;;;3.38;1.67;;;7.70;99.90;;;;;;5043282;28;20202;-86
2023/11/03 13:25:40;;;;;;;3.47;1.75;;;7.60;99.90;;;;;;5018534;28;20669;-83
2023/11/03 13:28:07;;;;;;;5.43;1.85;;;7.70;99.90;;;;;;5031350;28;20210;-85
2023/11/03 13:30:36;;;;;;;6.07;1.70;;;7.70;99.90;;;;;;5034061;28;20643;-84
2023/11/03 13:33:04;;;;;;;3.55;1.50;;;7.80;99.90;;;;;;5068010;28;20204;-85
2023/11/03 13:35:31;;;;;;;3.55;1.77;;;7.80;99.90;;;;;;5034513;28;20195;-87
2023/11/03 13:37:58;;;;;;;4.50;1.70;;;7.90;99.90;;;;;;5047266;28;20256;-83
2023/11/03 13:40:25;;;;;;;3.55;1.65;;;8.00;99.90;;;;;;5025094;28;20195;-83
2023/11/03 13:42:52;;;;;;;3.47;1.50;;;8.10;99.90;;;;;;5032997;28;20217;-81
2023/11/03 13:45:19;;;;;;;3.38;1.65;;;8.30;99.90;;;;;;5033715;28;20206;-83
2023/11/03 13:47:48;;;;;;;4.05;1.88;;;8.20;99.90;;;;;;5029810;28;20639;-83
2023/11/03 13:50:16;;;;;;;2.30;1.70;;;8.30;99.90;;;;;;5026859;28;20215;-84
2023/11/03 13:52:42;;;;;;;2.78;1.80;;;8.40;99.90;;;;;;5032925;28;20319;-85
2023/11/03 13:55:13;;;;;;;5.47;1.80;;;8.50;99.90;;;;;;5036404;28;20196;-84
2023/11/03 13:57:42;;;;;;;3.10;1.60;;;8.50;99.90;;;;;;5026924;28;20906;-83
2023/11/03 14:00:12;;;;;;;3.45;1.60;;;8.50;99.90;;;;;;5032853;28;20195;-84
2023/11/03 14:02:39;;;;;;;3.50;1.65;;;8.60;99.90;;;;;;5028165;28;20190;-84
2023/11/03 14:05:10;;;;;;;3.45;1.80;;;8.50;99.90;;;;;;5032712;28;20804;-85
2023/11/03 14:07:39;;;;;;;3.92;1.55;;;8.40;99.90;;;;;;5031830;28;20194;-84
2023/11/03 14:10:09;;;;;;;5.50;1.60;;;8.40;99.90;;;;;;5031340;28;20268;-84
2023/11/03 14:12:38;;;;;;;4.50;1.85;;;8.30;99.90;;;;;;5030920;28;20193;-84
2023/11/03 14:15:07;;;;;;;2.80;1.77;;;8.30;99.90;;;;;;5030585;28;20583;-86
2023/11/03 14:17:33;;;;;;;3.25;1.70;;;8.10;99.90;;;;;;5027375;28;20213;-83
2023/11/03 14:19:59;;;;;;;2.05;1.55;;;8.10;99.90;;;;;;5029652;28;20710;-86
2023/11/03 14:22:28;;;;;;;4.82;1.40;;;8.00;99.90;;;;;;5030347;28;20211;-87
2023/11/03 14:24:55;;;;;;;3.15;1.60;;;7.90;99.90;;;;;;5031934;28;20689;-85
2023/11/03 14:27:22;;;;;;;4.25;1.60;;;7.90;99.90;;;;;;5033185;28;20543;-84
2023/11/03 14:29:52;;;;;;;2.97;1.58;;;7.80;99.90;;;;;;5030114;28;20242;-84
2023/11/03 14:32:19;;;;;;;2.33;1.50;;;7.80;99.90;;;;;;5030687;28;20607;-84
2023/11/03 14:34:46;;;;;;;2.83;1.50;;;7.80;99.90;;;;;;5031686;28;20195;-84
2023/11/03 14:37:13;;;;;;;4.60;1.48;;;7.70;99.90;;;;;;5033389;28;20190;-84
2023/11/03 14:39:41;;;;;;;1.60;1.50;;;7.80;99.90;;;;;;5034959;28;20211;-84
2023/11/03 14:42:07;;;;;;;2.78;1.63;;;7.90;99.90;;;;;;5043048;28;20190;-84
2023/11/03 14:44:36;;;;;;;4.35;1.60;;;7.80;99.90;;;;;;5036285;28;20210;-84
2023/11/03 14:47:03;;;;;;;2.25;1.60;;;7.80;99.90;;;;;;5032667;28;20205;-84
2023/11/03 14:49:30;;;;;;;3.63;1.65;;;7.80;99.90;;;;;;5032632;28;20237;-84
2023/11/03 14:51:57;;;;;;;4.72;1.73;;;7.80;99.90;;;;;;5033687;28;20272;-84
2023/11/03 14:54:24;;;;;;;4.40;1.42;;;7.80;99.90;;;;;;5029450;28;20385;-85
2023/11/03 14:56:53;;;;;;;2.90;1.67;;;7.70;99.90;;;;;;5029317;28;20651;-84
2023/11/03 14:59:19;;;;;;;3.40;1.50;;;7.70;99.90;;;;;;5026286;28;20202;-83
2023/11/03 15:01:46;;;;;;;2.72;1.60;;;7.60;99.90;;;;;;5032725;28;20644;-84
2023/11/03 15:04:13;;;;;;;6.45;1.65;;;7.60;99.90;;;;;;5033159;28;20191;-84
2023/11/03 15:06:40;;;;;;;5.90;1.83;;;7.60;99.90;;;;;;5031631;28;20187;-84
2023/11/03 15:09:07;;;;;;;2.80;1.58;;;7.60;99.90;;;;;;5029653;28;20241;-84
2023/11/03 15:11:34;;;;;;;2.17;1.55;;;7.60;99.90;;;;;;5031723;28;20190;-85
2023/11/03 15:14:02;;;;;;;4.35;1.80;;;7.60;99.90;;;;;;5028166;28;21954;-84
2023/11/03 15:16:29;;;;;;;1.63;1.33;;;7.60;99.90;;;;;;5027106;28;20202;-84
2023/11/03 15:18:56;;;;;;;4.75;1.70;;;7.50;99.90;;;;;;5028293;28;20651;-84
2023/11/03 15:21:23;;;;;;;2.03;1.52;;;7.40;99.90;;;;;;5031308;28;20194;-84
2023/11/03 15:23:49;;;;;;;3.60;1.60;;;7.40;99.90;;;;;;5031231;28;20203;-85
2023/11/03 15:26:17;;;;;;;4.75;1.83;;;7.30;99.90;;;;;;5027052;28;20198;-84
2023/11/03 15:28:44;;;;;;;4.72;1.50;;;7.30;99.90;;;;;;5029498;28;20213;-85
2023/11/03 15:31:12;;;;;;;2.80;1.70;;;7.30;99.90;;;;;;5030039;28;20202;-84
2023/11/03 15:33:39;;;;;;;2.45;1.58;;;7.10;99.90;;;;;;5035247;28;20194;-84
2023/11/03 15:36:08;;;;;;;2.88;1.48;;;7.20;99.90;;;;;;5030696;28;20198;-83
2023/11/03 15:38:35;;;;;;;2.63;1.75;;;7.20;99.90;;;;;;5019610;28;20217;-84
2023/11/03 15:41:03;;;;;;;4.38;1.50;;;7.30;99.90;;;;;;5030713;28;20213;-84
2023/11/03 15:43:30;;;;;;;3.22;1.80;;;7.30;99.90;;;;;;5030377;28;20241;-85
2023/11/03 15:45:58;;;;;;;2.13;1.60;;;7.20;99.90;;;;;;5009446;28;20206;-84
2023/11/03 15:48:27;;;;;;;2.05;1.50;;;7.20;99.90;;;;;;5030470;28;20237;-85
2023/11/03 15:50:54;;;;;;;5.65;1.80;;;7.20;99.90;;;;;;5027499;28;20234;-83
2023/11/03 15:53:21;;;;;;;5.47;1.45;;;7.10;99.90;;;;;;5033302;28;20617;-83
2023/11/03 15:55:50;;;;;;;4.47;1.50;;;7.10;99.90;;;;;;5032109;28;20639;-83
2023/11/03 15:58:18;;;;;;;3.28;1.80;;;7.10;99.90;;;;;;5032952;28;20186;-83
2023/11/03 16:00:46;;;;;;;2.10;1.33;;;7.10;99.90;;;;;;5035591;28;20201;-83
2023/11/03 16:03:15;;;;;;;1.75;1.45;;;7.00;99.90;;;;;;5024452;28;20191;-83
2023/11/03 16:05:44;;;;;;;1.45;1.33;;;7.00;99.90;;;;;;5029861;28;20191;-85
2023/11/03 16:08:11;;;;;;;1.30;1.20;;;7.10;99.90;;;;;;5029480;28;20199;-83
2023/11/03 16:10:38;;;;;;;1.95;1.30;;;7.10;99.90;;;;;;5031285;28;20214;-84
2023/11/03 16:13:05;;;;;;;2.65;1.88;;;7.00;99.90;;;;;;5031158;28;20202;-83
2023/11/03 16:15:33;;;;;;;3.10;1.67;;;7.00;99.90;;;;;;5036411;28;20545;-83
2023/11/03 16:18:00;;;;;;;6.93;2.70;;;7.00;99.90;;;;;;5028483;28;20196;-84
2023/11/03 16:20:28;;;;;;;1.60;1.50;;;7.00;99.90;;;;;;5039306;28;20229;-83
2023/11/03 16:22:57;;;;;;;1.60;1.50;;;7.00;99.90;;;;;;5032955;28;20234;-83
2023/11/03 16:25:24;;;;;;;5.45;1.77;;;7.00;99.90;;;;;;5029955;28;20198;-84
2023/11/03 16:27:53;;;;;;;4.93;1.70;;;7.00;99.90;;;;;;5028883;28;20205;-83
2023/11/03 16:30:20;;;;;;;3.65;1.50;;;7.00;99.90;;;;;;5029134;28;20674;-84
2023/11/03 16:32:47;;;;;;;2.35;1.80;;;7.00;99.90;;;;;;5018958;28;20552;-84
2023/11/03 16:35:16;;;;;;;1.80;1.50;;;7.00;99.90;;;;;;5031821;28;20195;-84
2023/11/03 16:37:43;;;;;;;2.38;1.50;;;7.00;99.90;;;;;;5032475;28;20195;-85
2023/11/03 16:40:12;;;;;;;2.35;1.75;;;7.00;99.90;;;;;;5028562;28;20562;-84
2023/11/03 16:42:39;;;;;;;1.95;1.50;;;7.00;99.90;;;;;;5041655;28;20203;-84
2023/11/03 16:45:09;;;;;;;2.13;1.60;;;6.90;99.90;;;;;;5029167;28;20540;-84
2023/11/03 16:47:36;;;;;;;1.77;1.63;;;6.90;99.90;;;;;;5029496;28;20263;-84
2023/11/03 16:50:04;;;;;;;3.15;1.40;;;6.90;99.90;;;;;;5028408;28;21163;-84
2023/11/03 16:52:34;;;;;;;2.67;1.50;;;7.00;99.90;;;;;;5030171;28;20217;-84
2023/11/03 16:55:02;;;;;;;3.67;1.80;;;6.90;99.90;;;;;;5029780;28;20209;-85
2023/11/03 16:57:30;;;;;;;1.95;1.30;;;6.80;99.90;;;;;;5031816;28;20187;-84
2023/11/03 16:59:58;;;;;;;2.47;1.55;;;6.80;99.90;;;;;;5024938;28;20191;-84
2023/11/03 17:02:25;;;;;;;3.13;1.60;;;6.80;99.90;;;;;;5017086;28;20213;-87
2023/11/03 17:04:52;;;;;;;1.77;1.40;;;6.80;99.90;;;;;;5027364;28;20202;-83
2023/11/03 17:07:19;;;;;;;2.63;1.40;;;6.80;99.90;;;;;;5032133;28;20191;-83
2023/11/03 17:09:45;;;;;;;1.98;1.60;;;6.80;99.90;;;;;;5033688;28;20694;-84
2023/11/03 17:12:15;;;;;;;4.90;1.60;;;6.70;99.90;;;;;;5031359;28;20398;-84
2023/11/03 17:14:44;;;;;;;1.70;1.25;;;6.70;99.90;;;;;;5032305;28;20221;-84
2023/11/03 17:17:12;;;;;;;1.70;1.50;;;6.70;99.90;;;;;;5031498;28;20199;-83
2023/11/03 17:19:40;;;;;;;2.55;1.45;;;6.80;99.90;;;;;;5031968;28;20205;-83
2023/11/03 17:22:09;;;;;;;1.98;1.60;;;6.80;99.90;;;;;;5033748;28;20198;-84
2023/11/03 17:24:37;;;;;;;2.95;1.50;;;6.70;99.90;;;;;;5034286;28;20694;-85
2023/11/03 17:27:08;;;;;;;1.67;1.50;;;6.80;99.90;;;;;;5033631;28;20210;-87
2023/11/03 17:29:36;;;;;;;2.78;2.40;;;6.70;99.90;;;;;;5025312;28;20219;-88
2023/11/03 17:32:08;;;;;;;2.78;1.90;;;6.70;99.90;;;;;;5039032;28;20202;-88
2023/11/03 17:34:36;;;;;;;2.88;1.60;;;6.60;99.90;;;;;;5062097;28;20556;-88
2023/11/03 17:37:04;;;;;;;2.85;1.90;;;6.60;99.90;;;;;;5033108;28;20252;-86
2023/11/03 17:39:31;;;;;;;2.33;1.60;;;6.60;99.90;;;;;;5037304;28;20198;-88
2023/11/03 17:41:58;;;;;;;2.72;2.28;;;6.70;99.90;;;;;;5031355;28;20206;-86
2023/11/03 17:44:26;;;;;;;3.45;1.80;;;6.60;99.90;;;;;;5056913;28;20194;-87
2023/11/03 17:46:55;;;;;;;2.70;1.80;;;6.60;99.90;;;;;;5035980;28;20290;-84
2023/11/03 17:49:24;;;;;;;2.60;2.20;;;6.60;99.90;;;;;;5033891;28;20248;-83
2023/11/03 17:51:53;;;;;;;3.50;2.10;;;6.60;99.90;;;;;;5030625;28;20215;-85
2023/11/03 17:54:24;;;;;;;2.78;1.70;;;6.60;99.90;;;;;;5030962;28;20194;-84
2023/11/03 17:56:52;;;;;;;2.67;1.80;;;6.60;99.90;;;;;;5032186;28;20194;-85
2023/11/03 17:59:20;;;;;;;2.58;1.50;;;6.60;99.90;;;;;;5031546;28;20202;-83
2023/11/03 18:01:47;;;;;;;2.58;1.73;;;6.60;99.90;;;;;;5025359;28;20242;-85
2023/11/03 18:04:13;;;;;;;3.45;1.80;;;6.50;99.90;;;;;;5030173;28;20195;-83
2023/11/03 18:06:42;;;;;;;3.05;1.50;;;6.50;99.90;;;;;;5030268;28;20251;-85
2023/11/03 18:09:12;;;;;;;1.90;1.50;;;6.50;99.90;;;;;;5038009;28;20194;-83
2023/11/03 18:11:38;;;;;;;1.88;1.60;;;6.50;99.90;;;;;;5035361;28;20214;-84
2023/11/03 18:14:06;;;;;;;3.83;1.55;;;6.50;99.90;;;;;;5031356;28;20233;-84
2023/11/03 18:16:33;;;;;;;1.58;1.48;;;6.40;99.90;;;;;;5027020;28;20191;-83
2023/11/03 18:19:00;;;;;;;1.77;1.65;;;6.40;99.90;;;;;;5036900;28;20209;-84
2023/11/03 18:21:26;;;;;;;4.55;1.80;;;6.40;99.90;;;;;;5030766;28;20207;-83
2023/11/03 18:23:55;;;;;;;2.05;1.70;;;6.50;99.90;;;;;;5033048;28;20226;-84
2023/11/03 18:26:23;;;;;;;1.60;1.25;;;6.50;99.90;;;;;;5034567;28;20238;-83
2023/11/03 18:28:50;;;;;;;1.38;1.25;;;6.40;99.90;;;;;;5035942;28;20202;-83
2023/11/03 18:31:17;;;;;;;3.95;1.50;;;6.40;99.90;;;;;;5028814;28;20699;-83
2023/11/03 18:33:44;;;;;;;1.67;1.55;;;6.40;99.90;;;;;;5027885;28;20194;-83
2023/11/03 18:36:11;;;;;;;3.55;1.92;;;6.50;99.90;;;;;;5033137;28;20194;-84
2023/11/03 18:38:40;;;;;;;2.40;1.48;;;6.50;99.90;;;;;;5034434;28;20195;-84
2023/11/03 18:41:08;;;;;;;1.33;1.15;;;6.50;99.90;;;;;;5063157;28;20203;-83
2023/11/03 18:43:35;;;;;;;1.48;1.38;;;6.50;99.90;;;;;;5030872;28;20191;-84
2023/11/03 18:46:02;;;;;;;1.90;1.55;;;6.50;99.90;;;;;;5032264;28;20236;-82
2023/11/03 18:48:30;;;;;;;1.95;1.40;;;6.50;99.90;;;;;;5032884;28;20725;-84
2023/11/03 18:50:56;;;;;;;2.47;1.52;;;6.50;99.90;;;;;;5030224;28;20641;-83
2023/11/03 18:53:24;;;;;;;2.50;1.50;;;6.40;99.90;;;;;;5030080;28;20199;-83
2023/11/03 18:55:51;;;;;;;1.73;1.50;;;6.50;99.90;;;;;;5030792;28;20707;-84
2023/11/03 18:58:19;;;;;;;2.28;1.55;;;6.50;99.90;;;;;;5032190;28;20194;-84
2023/11/03 19:00:46;;;;;;;2.28;1.40;;;6.50;99.90;;;;;;5025513;28;20195;-84
2023/11/03 19:03:13;;;;;;;1.48;1.38;;;6.40;99.90;;;;;;5026167;28;20217;-84
2023/11/03 19:05:40;;;;;;;3.15;1.50;;;6.40;99.90;;;;;;5030065;28;20193;-83
2023/11/03 19:08:07;;;;;;;1.75;1.60;;;6.40;99.90;;;;;;5031658;28;20210;-84
2023/11/03 19:10:34;;;;;;;2.38;1.60;;;6.30;99.90;;;;;;5029300;28;20779;-83
2023/11/03 19:13:03;;;;;;;1.55;1.38;;;6.40;99.90;;;;;;5031499;28;20194;-83
2023/11/03 19:15:31;;;;;;;3.88;1.60;;;6.30;99.90;;;;;;5026212;28;20245;-83
2023/11/03 19:17:58;;;;;;;2.08;1.67;;;6.40;99.90;;;;;;5028672;28;20727;-83
2023/11/03 19:20:27;;;;;;;1.63;1.48;;;6.30;99.90;;;;;;5030831;28;21544;-84
2023/11/03 19:22:54;;;;;;;1.63;1.40;;;6.30;99.90;;;;;;5028781;28;20194;-83
2023/11/03 19:25:22;;;;;;;1.83;1.30;;;6.30;99.90;;;;;;5033595;28;20186;-83
2023/11/03 19:27:49;;;;;;;1.95;1.70;;;6.30;99.90;;;;;;5032046;28;20722;-83
2023/11/03 19:30:16;;;;;;;2.72;1.58;;;6.30;99.90;;;;;;5030606;28;20857;-83
2023/11/03 19:32:44;;;;;;;1.85;1.40;;;6.20;99.90;;;;;;5030982;28;20190;-83
2023/11/03 19:35:14;;;;;;;1.60;1.40;;;6.10;99.90;;;;;;5060370;28;20201;-83
2023/11/03 19:37:41;;;;;;;1.48;1.25;;;6.20;99.90;;;;;;5033182;28;20581;-84
2023/11/03 19:40:11;;;;;;;1.45;1.23;;;6.20;99.90;;;;;;5025306;28;20249;-84
2023/11/03 19:42:39;;;;;;;1.73;1.35;;;6.20;99.90;;;;;;5033383;28;20653;-83
2023/11/03 19:45:08;;;;;;;1.63;1.33;;;6.20;99.90;;;;;;5031595;28;20260;-85
2023/11/03 19:47:36;;;;;;;4.20;1.42;;;6.20;99.90;;;;;;5024659;28;20642;-83
2023/11/03 19:50:05;;;;;;;1.38;1.20;;;6.20;99.90;;;;;;5032613;28;20599;-83
2023/11/03 19:52:32;;;;;;;1.52;1.42;;;6.30;99.90;;;;;;5035284;28;20222;-83
2023/11/03 19:54:59;;;;;;;1.58;1.48;;;6.20;99.90;;;;;;5033332;28;20209;-83
2023/11/03 19:57:26;;;;;;;3.15;1.42;;;6.20;99.90;;;;;;5028466;28;20209;-84
2023/11/03 19:59:53;;;;;;;2.47;1.50;;;6.20;99.90;;;;;;5031632;28;20621;-87
2023/11/03 20:02:19;;;;;;;3.10;1.55;;;6.20;99.90;;;;;;5029579;28;20650;-86
2023/11/03 20:04:47;;;;;;;2.15;1.50;;;6.20;99.90;;;;;;5030365;28;20205;-82
2023/11/03 20:07:16;;;;;;;1.88;1.50;;;6.10;99.90;;;;;;5027988;28;20194;-84
2023/11/03 20:09:42;;;;;;;2.25;1.50;;;6.20;99.90;;;;;;5026998;28;20205;-84
2023/11/03 20:12:11;;;;;;;2.47;1.52;;;6.30;99.90;;;;;;5028087;28;20225;-84
2023/11/03 20:14:41;;;;;;;2.38;1.55;;;6.30;99.90;;;;;;5062833;28;20202;-84
2023/11/03 20:17:08;;;;;;;1.85;1.48;;;6.30;99.90;;;;;;5061591;28;20218;-84
2023/11/03 20:19:36;;;;;;;2.25;1.80;;;6.30;99.90;;;;;;5028581;28;20568;-85
2023/11/03 20:22:03;;;;;;;3.05;2.08;;;6.30;99.90;;;;;;5030544;28;20203;-84
2023/11/03 20:24:32;;;;;;;2.75;1.70;;;6.20;99.90;;;;;;5029530;28;20194;-84
2023/11/03 20:26:59;;;;;;;2.60;1.85;;;6.20;99.90;;;;;;5031607;28;20643;-84
2023/11/03 20:29:28;;;;;;;3.15;1.90;;;6.20;99.90;;;;;;5027976;28;20205;-83
2023/11/03 20:31:54;;;;;;;4.57;2.00;;;6.30;99.90;;;;;;5035521;28;20222;-84
2023/11/03 20:34:21;;;;;;;3.83;1.90;;;6.30;99.90;;;;;;5032586;28;20205;-83
2023/11/03 20:36:48;;;;;;;3.00;2.05;;;6.30;99.90;;;;;;5042174;28;20196;-84
2023/11/03 20:39:17;;;;;;;2.25;2.00;;;6.30;99.90;;;;;;5029127;28;20707;-84
2023/11/03 20:41:45;;;;;;;2.22;1.83;;;6.30;99.90;;;;;;5018331;28;20307;-84
2023/11/03 20:44:12;;;;;;;3.42;2.40;;;6.40;99.90;;;;;;5032631;28;20268;-83
2023/11/03 20:46:40;;;;;;;2.33;1.75;;;6.40;99.90;;;;;;5031624;28;20190;-83
2023/11/03 20:49:08;;;;;;;3.22;2.28;;;6.40;99.90;;;;;;5034238;28;20574;-83
2023/11/03 20:51:35;;;;;;;2.97;1.98;;;6.50;99.90;;;;;;5032620;28;20241;-83
2023/11/03 20:54:02;;;;;;;4.07;2.08;;;6.50;99.90;;;;;;5030700;28;20658;-84
2023/11/03 20:56:28;;;;;;;2.22;1.90;;;6.50;99.90;;;;;;5035258;28;20197;-83
2023/11/03 20:58:58;;;;;;;3.72;2.25;;;6.40;99.90;;;;;;5035814;28;21176;-84
2023/11/03 21:01:26;;;;;;;3.47;2.00;;;6.50;99.90;;;;;;5032252;28;20207;-84
2023/11/03 21:03:53;;;;;;;2.03;1.55;;;6.40;99.90;;;;;;5032047;28;20205;-84
2023/11/03 21:06:22;;;;;;;3.92;2.38;;;6.40;99.90;;;;;;5033316;28;20245;-83
2023/11/03 21:08:50;;;;;;;3.75;1.95;;;6.40;99.90;;;;;;5033603;28;20659;-85
2023/11/03 21:11:17;;;;;;;2.35;1.90;;;6.40;99.90;;;;;;5034950;28;20279;-83
2023/11/03 21:13:44;;;;;;;2.63;2.10;;;6.30;99.90;;;;;;5062174;28;20599;-83
2023/11/03 21:16:12;;;;;;;2.80;1.92;;;6.30;99.90;;;;;;5024738;28;20198;-83
2023/11/03 21:18:39;;;;;;;3.08;2.28;;;6.30;99.90;;;;;;5034889;28;20545;-84
2023/11/03 21:21:07;;;;;;;4.88;2.28;;;6.20;99.90;;;;;;5033411;28;20195;-84
2023/11/03 21:23:34;;;;;;;2.60;2.30;;;6.20;99.90;;;;;;5033949;28;20198;-83
2023/11/03 21:26:01;;;;;;;3.35;2.10;;;6.20;99.90;;;;;;5030427;28;20202;-84
2023/11/03 21:28:28;;;;;;;3.08;2.00;;;6.20;99.90;;;;;;5030992;28;20213;-84
2023/11/03 21:30:55;;;;;;;3.03;2.20;;;6.20;99.90;;;;;;5029770;28;20249;-84
2023/11/03 21:33:23;;;;;;;4.72;2.55;;;6.30;99.90;;;;;;5031296;28;20194;-84
2023/11/03 21:35:50;;;;;;;4.03;2.33;;;6.30;99.90;;;;;;5032401;28;20199;-84
2023/11/03 21:38:17;;;;;;;3.95;2.65;;;6.30;99.90;;;;;;5027674;28;20290;-84
2023/11/03 21:40:44;;;;;;;5.15;2.30;;;6.30;99.90;;;;;;5034704;28;20279;-83
2023/11/03 21:43:11;;;;;;;3.60;2.10;;;6.30;99.90;;;;;;5032473;28;20197;-86
2023/11/03 21:45:38;;;;;;;2.60;1.83;;;6.20;99.90;;;;;;5032491;28;20195;-83
2023/11/03 21:48:07;;;;;;;3.10;2.03;;;6.20;99.90;;;;;;5035499;28;20206;-83
2023/11/03 21:50:35;;;;;;;8.18;6.32;;;6.10;99.90;;;;;;5033220;28;20197;-85
2023/11/03 21:53:03;;;;;;;7.22;4.10;;;6.10;99.90;;;;;;5033241;28;20206;-83
2023/11/03 21:55:30;;;;;;;6.75;4.40;;;6.10;99.90;;;;;;5039025;28;20225;-85
2023/11/03 21:57:57;;;;;;;2.72;2.40;;;6.10;99.90;;;;;;5039337;28;20204;-84
2023/11/03 22:00:24;;;;;;;3.33;2.50;;;6.00;99.90;;;;;;5032108;28;20195;-84
2023/11/03 22:02:51;;;;;;;2.72;2.20;;;5.90;99.90;;;;;;5036633;28;20198;-84
2023/11/03 22:05:18;;;;;;;3.65;3.03;;;5.90;99.90;;;;;;5026657;28;20206;-83
2023/11/03 22:07:46;;;;;;;20.17;15.52;;;5.80;99.90;;;;;;5035375;28;20290;-84
2023/11/03 22:10:13;;;;;;;6.27;4.47;;;5.80;99.90;;;;;;5034422;28;20209;-83
2023/11/03 22:12:40;;;;;;;6.68;4.10;;;5.70;99.90;;;;;;5038052;28;20221;-84
2023/11/03 22:15:07;;;;;;;4.82;3.13;;;5.70;99.90;;;;;;5032728;28;20208;-83
2023/11/03 22:17:34;;;;;;;4.30;2.40;;;5.60;99.90;;;;;;5025851;28;20200;-84
2023/11/03 22:20:02;;;;;;;3.97;2.45;;;5.60;99.90;;;;;;5032916;28;20194;-84
2023/11/03 22:22:29;;;;;;;3.28;2.28;;;5.60;99.90;;;;;;5034735;28;20266;-83
2023/11/03 22:24:58;;;;;;;2.83;2.23;;;5.50;99.90;;;;;;5031582;28;20209;-84
2023/11/03 22:27:24;;;;;;;2.05;1.70;;;5.50;99.90;;;;;;5031010;28;20190;-84
2023/11/03 22:29:51;;;;;;;2.17;1.50;;;5.40;99.90;;;;;;5035885;28;20247;-84
2023/11/03 22:32:18;;;;;;;1.70;1.60;;;5.40;99.90;;;;;;5036021;28;20547;-84
2023/11/03 22:34:46;;;;;;;2.70;1.45;;;5.40;99.90;;;;;;5025119;28;20207;-84
2023/11/03 22:37:14;;;;;;;1.70;1.50;;;5.40;99.90;;;;;;5036542;28;20207;-84
2023/11/03 22:39:41;;;;;;;2.70;1.50;;;5.40;99.90;;;;;;5034430;28;20585;-84
2023/11/03 22:42:09;;;;;;;5.43;1.93;;;5.40;99.90;;;;;;5033807;28;20206;-83
2023/11/03 22:44:36;;;;;;;3.37;1.70;;;5.30;99.90;;;;;;5063323;28;20198;-84
2023/11/03 22:47:03;;;;;;;1.77;1.63;;;5.30;99.90;;;;;;5031215;28;20193;-84
2023/11/03 22:49:29;;;;;;;2.40;1.60;;;5.30;99.90;;;;;;5033319;28;20198;-84
2023/11/03 22:51:56;;;;;;;2.53;1.73;;;5.30;99.90;;;;;;5033983;28;20229;-85
2023/11/03 22:54:23;;;;;;;2.60;1.70;;;5.20;99.90;;;;;;5042974;28;20204;-84
2023/11/03 22:56:50;;;;;;;1.90;1.50;;;5.20;99.90;;;;;;5038542;28;20302;-84
2023/11/03 22:59:18;;;;;;;2.43;1.37;;;5.20;99.90;;;;;;5030203;28;20194;-85
2023/11/03 23:01:45;;;;;;;3.40;1.37;;;5.20;99.90;;;;;;5034555;28;20598;-85
2023/11/03 23:04:12;;;;;;;3.13;1.50;;;5.30;99.90;;;;;;5056680;28;20272;-86
2023/11/03 23:06:39;;;;;;;1.73;1.30;;;5.20;99.90;;;;;;5026333;28;20191;-84
2023/11/03 23:09:09;;;;;;;3.23;1.53;;;5.30;99.90;;;;;;5030582;28;20202;-84
2023/11/03 23:11:34;;;;;;;1.97;1.60;;;5.30;99.90;;;;;;5035877;28;20217;-84
2023/11/03 23:14:01;;;;;;;2.30;1.50;;;5.20;99.90;;;;;;5032636;28;20194;-84
2023/11/03 23:16:31;;;;;;;3.50;1.60;;;5.20;99.90;;;;;;5028267;28;20205;-84
2023/11/03 23:18:58;;;;;;;2.77;1.80;;;5.20;99.90;;;;;;5036766;28;20203;-84
2023/11/03 23:21:24;;;;;;;3.00;1.50;;;5.20;99.90;;;;;;5031449;28;20206;-84
2023/11/03 23:23:52;;;;;;;3.03;2.00;;;5.10;99.90;;;;;;5032113;28;20199;-85
2023/11/03 23:26:19;;;;;;;3.30;1.67;;;5.00;99.90;;;;;;5033735;28;20197;-84
2023/11/03 23:28:45;;;;;;;2.50;1.80;;;5.00;99.90;;;;;;5029118;28;20234;-84
2023/11/03 23:31:12;;;;;;;2.93;1.60;;;5.10;99.90;;;;;;5025952;28;20652;-84
2023/11/03 23:33:41;;;;;;;2.43;1.70;;;5.10;99.90;;;;;;5023765;28;20644;-85
2023/11/03 23:36:08;;;;;;;2.10;1.70;;;5.10;99.90;;;;;;5028960;28;20245;-83
2023/11/03 23:38:36;;;;;;;2.73;1.53;;;5.10;99.90;;;;;;5029442;28;20201;-84
2023/11/03 23:41:04;;;;;;;2.53;1.27;;;5.10;99.90;;;;;;5029080;28;20281;-84
2023/11/03 23:43:33;;;;;;;2.07;1.60;;;5.00;99.90;;;;;;5028454;28;20206;-85
2023/11/03 23:46:00;;;;;;;1.57;1.47;;;5.00;99.90;;;;;;5025417;28;20276;-84
2023/11/03 23:48:27;;;;;;;3.70;1.60;;;4.90;99.90;;;;;;5027055;28;20206;-84
2023/11/03 23:50:56;;;;;;;2.13;1.63;;;4.90;99.90;;;;;;5024750;28;20214;-84
2023/11/03 23:53:23;;;;;;;1.70;1.60;;;5.00;99.90;;;;;;5028995;28;20210;-84
2023/11/03 23:55:50;;;;;;;1.70;1.60;;;5.00;99.90;;;;;;5031012;28;20281;-84
2023/11/03 23:58:17;;;;;;;1.77;1.50;;;5.10;99.90;;;;;;5025235;28;20193;-83
